createdAt,value
2023-03-30T00:00:55.604Z,1006.44
2023-03-30T00:01:55.609Z,1006.46
2023-03-30T00:02:55.751Z,1006.48
2023-03-30T00:03:55.775Z,1006.49
2023-03-30T00:04:55.711Z,1006.47
2023-03-30T00:05:55.587Z,1006.48
2023-03-30T00:06:55.611Z,1006.48
2023-03-30T00:07:55.577Z,1006.50
2023-03-30T00:08:55.564Z,1006.45
2023-03-30T00:09:55.566Z,1006.50
2023-03-30T00:10:55.564Z,1006.47
2023-03-30T00:11:55.562Z,1006.44
2023-03-30T00:12:55.578Z,1006.47
2023-03-30T00:13:55.605Z,1006.45
2023-03-30T00:14:55.544Z,1006.43
2023-03-30T00:15:55.547Z,1006.41
2023-03-30T00:16:55.572Z,1006.42
2023-03-30T00:17:55.569Z,1006.42
2023-03-30T00:18:55.525Z,1006.41
2023-03-30T00:19:55.550Z,1006.41
2023-03-30T00:20:55.511Z,1006.37
2023-03-30T00:21:55.514Z,1006.36
2023-03-30T00:22:55.500Z,1006.33
2023-03-30T00:23:55.540Z,1006.34
2023-03-30T00:24:55.509Z,1006.34
2023-03-30T00:25:55.492Z,1006.29
2023-03-30T00:26:55.487Z,1006.29
2023-03-30T00:27:55.506Z,1006.26
2023-03-30T00:28:55.474Z,1006.28
2023-03-30T00:29:55.471Z,1006.26
2023-03-30T00:30:55.478Z,1006.26
2023-03-30T00:31:55.584Z,1006.22
2023-03-30T00:32:55.469Z,1006.21
2023-03-30T00:33:55.454Z,1006.21
2023-03-30T00:34:55.449Z,1006.15
2023-03-30T00:35:55.494Z,1006.16
2023-03-30T00:36:55.437Z,1006.14
2023-03-30T00:37:55.429Z,1006.11
2023-03-30T00:38:55.424Z,1006.11
2023-03-30T00:39:55.447Z,1006.05
2023-03-30T00:40:55.421Z,1006.08
2023-03-30T00:41:55.419Z,1006.08
2023-03-30T00:42:55.415Z,1006.05
2023-03-30T00:43:55.405Z,1006.04
2023-03-30T00:44:55.390Z,1006.02
2023-03-30T00:45:55.423Z,1006.02
2023-03-30T00:46:55.387Z,1006.07
2023-03-30T00:47:55.404Z,1006.03
2023-03-30T00:48:55.381Z,1005.98
2023-03-30T00:49:55.373Z,1005.97
2023-03-30T00:50:55.368Z,1005.92
2023-03-30T00:51:55.358Z,1005.90
2023-03-30T00:52:55.352Z,1005.88
2023-03-30T00:53:55.360Z,1005.84
2023-03-30T00:54:55.344Z,1005.82
2023-03-30T00:55:55.382Z,1005.75
2023-03-30T00:56:55.363Z,1005.75
2023-03-30T00:57:55.329Z,1005.75
2023-03-30T00:58:55.323Z,1005.69
2023-03-30T00:59:55.327Z,1005.71
2023-03-30T01:00:55.318Z,1005.69
2023-03-30T01:01:55.397Z,1005.64
2023-03-30T01:02:55.340Z,1005.65
2023-03-30T01:03:55.370Z,1005.62
2023-03-30T01:04:55.297Z,1005.64
2023-03-30T01:05:55.300Z,1005.56
2023-03-30T01:06:55.299Z,1005.56
2023-03-30T01:07:55.309Z,1005.51
2023-03-30T01:08:55.278Z,1005.44
2023-03-30T01:09:55.274Z,1005.45
2023-03-30T01:10:55.271Z,1005.45
2023-03-30T01:11:55.277Z,1005.40
2023-03-30T01:12:55.262Z,1005.38
2023-03-30T01:13:55.260Z,1005.38
2023-03-30T01:14:55.248Z,1005.35
2023-03-30T01:15:55.244Z,1005.33
2023-03-30T01:16:55.262Z,1005.29
2023-03-30T01:17:55.372Z,1005.30
2023-03-30T01:18:55.259Z,1005.35
2023-03-30T01:19:55.234Z,1005.28
2023-03-30T01:20:55.225Z,1005.22
2023-03-30T01:21:55.227Z,1005.22
2023-03-30T01:22:55.212Z,1005.19
2023-03-30T01:23:55.207Z,1005.24
2023-03-30T01:24:55.208Z,1005.15
2023-03-30T01:25:55.195Z,1005.12
2023-03-30T01:26:55.188Z,1005.09
2023-03-30T01:27:55.193Z,1005.11
2023-03-30T01:28:55.180Z,1005.05
2023-03-30T01:29:55.177Z,1005.01
2023-03-30T01:30:55.248Z,1005.00
2023-03-30T01:31:55.164Z,1005.03
2023-03-30T01:32:55.197Z,1005.05
2023-03-30T01:33:55.156Z,1005.04
2023-03-30T01:34:55.156Z,1005.11
2023-03-30T01:35:55.252Z,1005.07
2023-03-30T01:36:55.137Z,1005.07
2023-03-30T01:37:55.133Z,1005.05
2023-03-30T01:38:55.128Z,1005.00
2023-03-30T01:39:55.127Z,1005.01
2023-03-30T01:40:55.119Z,1005.01
2023-03-30T01:41:55.118Z,1004.95
2023-03-30T01:42:55.123Z,1004.91
2023-03-30T01:43:55.110Z,1004.91
2023-03-30T01:44:55.104Z,1004.87
2023-03-30T01:45:55.103Z,1004.79
2023-03-30T01:46:55.112Z,1004.77
2023-03-30T01:47:55.150Z,1004.67
2023-03-30T01:48:55.081Z,1004.71
2023-03-30T01:49:55.083Z,1004.65
2023-03-30T01:50:55.064Z,1004.72
2023-03-30T01:51:55.067Z,1004.69
2023-03-30T01:52:55.066Z,1004.71
2023-03-30T01:53:55.072Z,1004.74
2023-03-30T01:54:55.061Z,1004.70
2023-03-30T01:55:55.045Z,1004.70
2023-03-30T01:56:55.072Z,1004.63
2023-03-30T01:57:55.033Z,1004.62
2023-03-30T01:58:55.061Z,1004.67
2023-03-30T01:59:55.021Z,1004.64
2023-03-30T02:00:55.024Z,1004.74
2023-03-30T02:01:55.074Z,1004.75
2023-03-30T02:02:55.084Z,1004.74
2023-03-30T02:03:55.095Z,1004.77
2023-03-30T02:04:55.005Z,1004.81
2023-03-30T02:05:54.991Z,1004.85
2023-03-30T02:06:54.985Z,1004.86
2023-03-30T02:07:54.995Z,1004.85
2023-03-30T02:08:55.027Z,1004.84
2023-03-30T02:09:54.990Z,1004.85
2023-03-30T02:10:54.988Z,1004.85
2023-03-30T02:11:54.964Z,1004.81
2023-03-30T02:12:54.972Z,1004.69
2023-03-30T02:13:54.958Z,1004.63
2023-03-30T02:14:54.957Z,1004.59
2023-03-30T02:15:54.976Z,1004.61
2023-03-30T02:16:54.934Z,1004.61
2023-03-30T02:17:54.951Z,1004.68
2023-03-30T02:18:54.932Z,1004.61
2023-03-30T02:19:54.921Z,1004.64
2023-03-30T02:20:54.918Z,1004.61
2023-03-30T02:21:54.919Z,1004.59
2023-03-30T02:22:54.908Z,1004.58
2023-03-30T02:23:54.958Z,1004.57
2023-03-30T02:24:54.896Z,1004.57
2023-03-30T02:25:54.899Z,1004.53
2023-03-30T02:26:54.893Z,1004.53
2023-03-30T02:27:54.901Z,1004.46
2023-03-30T02:28:54.898Z,1004.44
2023-03-30T02:29:54.871Z,1004.41
2023-03-30T02:30:54.895Z,1004.42
2023-03-30T02:31:54.878Z,1004.35
2023-03-30T02:32:55.017Z,1004.31
2023-03-30T02:33:54.859Z,1004.25
2023-03-30T02:34:54.849Z,1004.33
2023-03-30T02:35:54.919Z,1004.28
2023-03-30T02:36:54.856Z,1004.31
2023-03-30T02:37:54.826Z,1004.33
2023-03-30T02:38:54.828Z,1004.30
2023-03-30T02:39:54.837Z,1004.27
2023-03-30T02:40:54.828Z,1004.25
2023-03-30T02:41:54.809Z,1004.24
2023-03-30T02:42:54.818Z,1004.24
2023-03-30T02:43:54.797Z,1004.22
2023-03-30T02:44:54.805Z,1004.18
2023-03-30T02:45:54.831Z,1004.18
2023-03-30T02:46:54.815Z,1004.15
2023-03-30T02:47:54.812Z,1004.10
2023-03-30T02:48:54.777Z,1004.05
2023-03-30T02:49:54.780Z,1004.01
2023-03-30T02:50:54.773Z,1004.03
2023-03-30T02:51:54.775Z,1004.04
2023-03-30T02:52:54.768Z,1004.04
2023-03-30T02:53:54.778Z,1004.06
2023-03-30T02:54:54.749Z,1004.04
2023-03-30T02:55:54.758Z,1004.06
2023-03-30T02:56:54.798Z,1004.08
2023-03-30T02:57:54.739Z,1004.06
2023-03-30T02:58:54.736Z,1004.03
2023-03-30T02:59:54.721Z,1004.00
2023-03-30T03:00:55.429Z,1004.00
2023-03-30T03:01:54.743Z,1003.98
2023-03-30T03:02:54.808Z,1004.01
2023-03-30T03:03:54.731Z,1003.97
2023-03-30T03:04:54.715Z,1003.95
2023-03-30T03:05:54.703Z,1003.93
2023-03-30T03:06:54.687Z,1003.93
2023-03-30T03:07:54.688Z,1003.86
2023-03-30T03:08:54.691Z,1003.84
2023-03-30T03:09:54.704Z,1003.81
2023-03-30T03:10:54.669Z,1003.78
2023-03-30T03:11:54.690Z,1003.76
2023-03-30T03:12:54.664Z,1003.71
2023-03-30T03:13:54.646Z,1003.71
2023-03-30T03:14:54.645Z,1003.76
2023-03-30T03:15:54.649Z,1003.75
2023-03-30T03:16:54.673Z,1003.69
2023-03-30T03:17:54.693Z,1003.69
2023-03-30T03:18:54.640Z,1003.72
2023-03-30T03:19:54.635Z,1003.78
2023-03-30T03:20:54.623Z,1003.77
2023-03-30T03:21:54.624Z,1003.78
2023-03-30T03:22:54.621Z,1003.71
2023-03-30T03:23:54.596Z,1003.70
2023-03-30T03:24:54.613Z,1003.70
2023-03-30T03:25:54.595Z,1003.71
2023-03-30T03:26:54.604Z,1003.70
2023-03-30T03:27:54.602Z,1003.64
2023-03-30T03:28:54.612Z,1003.64
2023-03-30T03:29:54.647Z,1003.62
2023-03-30T03:30:54.665Z,1003.60
2023-03-30T03:31:54.659Z,1003.61
2023-03-30T03:32:54.669Z,1003.59
2023-03-30T03:33:54.625Z,1003.61
2023-03-30T03:34:54.552Z,1003.58
2023-03-30T03:35:54.600Z,1003.58
2023-03-30T03:36:54.539Z,1003.60
2023-03-30T03:37:54.525Z,1003.55
2023-03-30T03:38:54.527Z,1003.53
2023-03-30T03:39:54.519Z,1003.52
2023-03-30T03:40:54.523Z,1003.44
2023-03-30T03:41:54.501Z,1003.41
2023-03-30T03:42:54.508Z,1003.40
2023-03-30T03:43:54.508Z,1003.40
2023-03-30T03:44:54.501Z,1003.37
2023-03-30T03:45:54.487Z,1003.32
2023-03-30T03:46:54.527Z,1003.31
2023-03-30T03:47:54.500Z,1003.28
2023-03-30T03:48:54.475Z,1003.29
2023-03-30T03:49:54.466Z,1003.28
2023-03-30T03:50:54.460Z,1003.27
2023-03-30T03:51:54.477Z,1003.27
2023-03-30T03:52:54.458Z,1003.25
2023-03-30T03:53:54.442Z,1003.22
2023-03-30T03:54:54.436Z,1003.19
2023-03-30T03:55:54.453Z,1003.19
2023-03-30T03:56:54.484Z,1003.18
2023-03-30T03:57:54.421Z,1003.14
2023-03-30T03:58:54.420Z,1003.13
2023-03-30T03:59:54.441Z,1003.12
2023-03-30T04:00:54.449Z,1003.13
2023-03-30T04:01:54.429Z,1003.14
2023-03-30T04:02:54.413Z,1003.11
2023-03-30T04:03:54.402Z,1003.09
2023-03-30T04:04:54.411Z,1003.08
2023-03-30T04:05:54.398Z,1003.03
2023-03-30T04:06:54.379Z,1003.06
2023-03-30T04:07:54.368Z,1003.04
2023-03-30T04:08:54.372Z,1002.99
2023-03-30T04:09:54.376Z,1002.92
2023-03-30T04:10:54.369Z,1002.91
2023-03-30T04:11:54.353Z,1002.89
2023-03-30T04:12:54.365Z,1002.84
2023-03-30T04:13:54.360Z,1002.82
2023-03-30T04:14:54.362Z,1002.86
2023-03-30T04:15:54.457Z,1002.84
2023-03-30T04:16:54.329Z,1002.84
2023-03-30T04:17:54.374Z,1002.87
2023-03-30T04:18:54.347Z,1002.79
2023-03-30T04:19:54.307Z,1002.85
2023-03-30T04:20:54.330Z,1002.81
2023-03-30T04:21:54.311Z,1002.79
2023-03-30T04:22:54.330Z,1002.75
2023-03-30T04:23:54.288Z,1002.79
2023-03-30T04:24:54.288Z,1002.78
2023-03-30T04:25:54.296Z,1002.78
2023-03-30T04:26:54.290Z,1002.78
2023-03-30T04:27:54.270Z,1002.78
2023-03-30T04:28:54.292Z,1002.79
2023-03-30T04:29:54.269Z,1002.78
2023-03-30T04:30:54.268Z,1002.75
2023-03-30T04:31:54.346Z,1002.82
2023-03-30T04:32:54.341Z,1002.80
2023-03-30T04:33:54.253Z,1002.77
2023-03-30T04:34:54.252Z,1002.75
2023-03-30T04:35:54.302Z,1002.70
2023-03-30T04:36:54.283Z,1002.74
2023-03-30T04:37:54.232Z,1002.74
2023-03-30T04:38:54.222Z,1002.74
2023-03-30T04:39:54.206Z,1002.73
2023-03-30T04:40:54.211Z,1002.74
2023-03-30T04:41:54.280Z,1002.74
2023-03-30T04:42:54.204Z,1002.71
2023-03-30T04:43:54.194Z,1002.73
2023-03-30T04:44:54.192Z,1002.71
2023-03-30T04:47:01.407Z,1002.73
2023-03-30T04:48:58.183Z,1002.71
2023-03-30T04:49:58.155Z,1002.63
2023-03-30T04:50:58.161Z,1002.59
2023-03-30T04:51:58.152Z,1002.56
2023-03-30T04:52:58.145Z,1002.61
2023-03-30T04:53:58.143Z,1002.56
2023-03-30T04:54:58.141Z,1002.61
2023-03-30T04:55:58.148Z,1002.60
2023-03-30T04:56:58.187Z,1002.65
2023-03-30T04:57:58.116Z,1002.69
2023-03-30T04:58:58.112Z,1002.65
2023-03-30T04:59:58.105Z,1002.67
2023-03-30T05:00:58.157Z,1002.69
2023-03-30T05:01:58.209Z,1002.70
2023-03-30T05:02:58.208Z,1002.66
2023-03-30T05:03:58.099Z,1002.66
2023-03-30T05:04:58.088Z,1002.65
2023-03-30T05:05:58.068Z,1002.60
2023-03-30T05:06:58.076Z,1002.59
2023-03-30T05:07:58.064Z,1002.57
2023-03-30T05:08:58.099Z,1002.59
2023-03-30T05:09:58.052Z,1002.53
2023-03-30T05:10:58.048Z,1002.48
2023-03-30T05:11:58.049Z,1002.48
2023-03-30T05:12:58.064Z,1002.46
2023-03-30T05:13:58.042Z,1002.42
2023-03-30T05:14:58.041Z,1002.42
2023-03-30T05:15:58.023Z,1002.39
2023-03-30T05:16:58.035Z,1002.34
2023-03-30T05:17:58.019Z,1002.33
2023-03-30T05:18:58.022Z,1002.27
2023-03-30T05:19:58.059Z,1002.24
2023-03-30T05:20:58.046Z,1002.16
2023-03-30T05:21:57.994Z,1002.10
2023-03-30T05:22:58.001Z,1002.12
2023-03-30T05:23:57.988Z,1002.08
2023-03-30T05:24:57.998Z,1002.06
2023-03-30T05:25:57.993Z,1002.02
2023-03-30T05:26:57.980Z,1002.00
2023-03-30T05:27:57.974Z,1001.94
2023-03-30T05:28:57.953Z,1001.94
2023-03-30T05:29:57.950Z,1001.93
2023-03-30T05:30:58.046Z,1001.92
2023-03-30T05:31:57.955Z,1001.90
2023-03-30T05:32:58.016Z,1001.89
2023-03-30T05:33:57.972Z,1001.88
2023-03-30T05:34:57.930Z,1002.00
2023-03-30T05:35:58.051Z,1002.03
2023-03-30T05:36:57.936Z,1002.03
2023-03-30T05:37:57.937Z,1002.06
2023-03-30T05:38:57.928Z,1002.12
2023-03-30T05:39:57.904Z,1002.15
2023-03-30T05:40:57.897Z,1002.13
2023-03-30T05:41:57.895Z,1002.12
2023-03-30T05:42:57.889Z,1002.14
2023-03-30T05:43:57.885Z,1002.12
2023-03-30T05:44:57.895Z,1002.08
2023-03-30T05:45:57.913Z,1002.08
2023-03-30T05:46:57.856Z,1002.06
2023-03-30T05:47:57.882Z,1001.97
2023-03-30T05:48:57.862Z,1001.99
2023-03-30T05:49:57.858Z,1001.98
2023-03-30T05:50:58.936Z,1002.00
2023-03-30T05:51:57.829Z,1001.99
2023-03-30T05:52:57.838Z,1001.98
2023-03-30T05:53:57.876Z,1001.97
2023-03-30T05:54:57.820Z,1001.97
2023-03-30T05:55:57.811Z,1001.96
2023-03-30T05:56:57.882Z,1002.00
2023-03-30T05:57:57.821Z,1002.04
2023-03-30T05:58:57.793Z,1001.99
2023-03-30T05:59:57.796Z,1002.00
2023-03-30T06:00:57.785Z,1001.95
2023-03-30T06:01:57.801Z,1001.96
2023-03-30T06:02:57.841Z,1001.94
2023-03-30T06:03:57.961Z,1001.91
2023-03-30T06:04:57.900Z,1001.83
2023-03-30T06:05:57.774Z,1001.80
2023-03-30T06:06:57.770Z,1001.83
2023-03-30T06:07:57.766Z,1001.81
2023-03-30T06:08:57.770Z,1001.81
2023-03-30T06:09:57.758Z,1001.77
2023-03-30T06:10:57.742Z,1001.69
2023-03-30T06:11:57.740Z,1001.76
2023-03-30T06:12:57.723Z,1001.78
2023-03-30T06:13:57.727Z,1001.71
2023-03-30T06:14:57.710Z,1001.73
2023-03-30T06:15:58.373Z,1001.76
2023-03-30T06:16:57.856Z,1001.73
2023-03-30T06:17:57.797Z,1001.76
2023-03-30T06:18:57.689Z,1001.81
2023-03-30T06:19:57.686Z,1001.83
2023-03-30T06:20:57.725Z,1001.72
2023-03-30T06:21:57.697Z,1001.70
2023-03-30T06:22:57.693Z,1001.69
2023-03-30T06:23:57.673Z,1001.64
2023-03-30T06:24:57.666Z,1001.62
2023-03-30T06:25:57.779Z,1001.59
2023-03-30T06:26:57.660Z,1001.57
2023-03-30T06:27:57.732Z,1001.56
2023-03-30T06:28:57.652Z,1001.55
2023-03-30T06:29:57.645Z,1001.50
2023-03-30T06:30:57.639Z,1001.50
2023-03-30T06:31:57.650Z,1001.53
2023-03-30T06:32:57.692Z,1001.54
2023-03-30T06:33:57.627Z,1001.57
2023-03-30T06:34:57.624Z,1001.55
2023-03-30T06:35:57.648Z,1001.57
2023-03-30T06:36:57.642Z,1001.56
2023-03-30T06:37:57.600Z,1001.58
2023-03-30T06:38:57.605Z,1001.58
2023-03-30T06:39:57.609Z,1001.56
2023-03-30T06:40:57.598Z,1001.55
2023-03-30T06:41:57.616Z,1001.62
2023-03-30T06:42:57.599Z,1001.59
2023-03-30T06:43:57.577Z,1001.61
2023-03-30T06:44:57.580Z,1001.61
2023-03-30T06:45:57.600Z,1001.65
2023-03-30T06:46:57.565Z,1001.67
2023-03-30T06:47:57.628Z,1001.63
2023-03-30T06:48:57.556Z,1001.63
2023-03-30T06:49:57.573Z,1001.59
2023-03-30T06:50:57.571Z,1001.60
2023-03-30T06:51:57.604Z,1001.53
2023-03-30T06:52:57.540Z,1001.49
2023-03-30T06:53:57.545Z,1001.54
2023-03-30T06:54:57.539Z,1001.58
2023-03-30T06:55:57.524Z,1001.53
2023-03-30T06:56:57.562Z,1001.49
2023-03-30T06:57:57.521Z,1001.41
2023-03-30T06:58:57.524Z,1001.47
2023-03-30T06:59:57.533Z,1001.45
2023-03-30T07:00:57.532Z,1001.44
2023-03-30T07:01:57.832Z,1001.46
2023-03-30T07:02:57.569Z,1001.43
2023-03-30T07:03:57.585Z,1001.36
2023-03-30T07:04:57.481Z,1001.41
2023-03-30T07:05:57.485Z,1001.40
2023-03-30T07:06:57.532Z,1001.39
2023-03-30T07:07:57.504Z,1001.37
2023-03-30T07:08:57.477Z,1001.37
2023-03-30T07:09:57.502Z,1001.31
2023-03-30T07:10:57.461Z,1001.29
2023-03-30T07:11:57.472Z,1001.34
2023-03-30T07:12:57.461Z,1001.33
2023-03-30T07:13:57.473Z,1001.32
2023-03-30T07:14:57.450Z,1001.31
2023-03-30T07:15:57.474Z,1001.36
2023-03-30T07:16:57.496Z,1001.34
2023-03-30T07:17:57.547Z,1001.28
2023-03-30T07:18:57.438Z,1001.29
2023-03-30T07:19:57.464Z,1001.28
2023-03-30T07:20:57.442Z,1001.34
2023-03-30T07:21:57.451Z,1001.32
2023-03-30T07:22:57.441Z,1001.29
2023-03-30T07:23:57.447Z,1001.19
2023-03-30T07:24:57.459Z,1001.27
2023-03-30T07:25:57.565Z,1001.29
2023-03-30T07:26:57.467Z,1001.37
2023-03-30T07:27:57.477Z,1001.41
2023-03-30T07:28:57.463Z,1001.37
2023-03-30T07:30:04.605Z,1001.40
2023-03-30T07:30:57.501Z,1001.35
2023-03-30T07:31:57.487Z,1001.32
2023-03-30T07:32:58.511Z,1001.28
2023-03-30T07:33:57.485Z,1001.27
2023-03-30T07:34:57.484Z,1001.27
2023-03-30T07:35:57.512Z,1001.24
2023-03-30T07:36:57.512Z,1001.27
2023-03-30T07:38:03.311Z,1001.27
2023-03-30T07:38:57.527Z,1001.21
2023-03-30T07:39:57.549Z,1001.23
2023-03-30T07:40:57.552Z,1001.32
2023-03-30T07:41:57.555Z,1001.31
2023-03-30T07:42:57.598Z,1001.37
2023-03-30T07:43:57.560Z,1001.25
2023-03-30T07:44:57.566Z,1001.28
2023-03-30T07:45:57.739Z,1001.26
2023-03-30T07:46:57.585Z,1001.31
2023-03-30T07:47:57.668Z,1001.30
2023-03-30T07:48:57.602Z,1001.26
2023-03-30T07:49:57.617Z,1001.28
2023-03-30T07:50:57.671Z,1001.24
2023-03-30T07:51:57.628Z,1001.23
2023-03-30T07:52:57.639Z,1001.19
2023-03-30T07:53:57.659Z,1001.16
2023-03-30T07:54:57.680Z,1001.20
2023-03-30T07:55:57.685Z,1001.19
2023-03-30T07:56:57.747Z,1001.22
2023-03-30T07:57:57.688Z,1001.22
2023-03-30T07:58:59.623Z,1001.22
2023-03-30T07:59:57.709Z,1001.18
2023-03-30T08:00:57.711Z,1001.29
2023-03-30T08:01:57.721Z,1001.28
2023-03-30T08:02:57.789Z,1001.26
2023-03-30T08:03:57.840Z,1001.32
2023-03-30T08:04:57.958Z,1001.29
2023-03-30T08:05:57.777Z,1001.35
2023-03-30T08:06:57.789Z,1001.32
2023-03-30T08:07:57.786Z,1001.34
2023-03-30T08:08:57.798Z,1001.35
2023-03-30T08:09:57.814Z,1001.30
2023-03-30T08:10:57.882Z,1001.24
2023-03-30T08:11:57.834Z,1001.24
2023-03-30T08:12:57.851Z,1001.19
2023-03-30T08:13:57.858Z,1001.18
2023-03-30T08:14:57.893Z,1001.19
2023-03-30T08:15:57.896Z,1001.17
2023-03-30T08:16:57.885Z,1001.18
2023-03-30T08:17:57.921Z,1001.15
2023-03-30T08:18:57.910Z,1001.15
2023-03-30T08:19:57.930Z,1001.11
2023-03-30T08:20:57.976Z,1001.10
2023-03-30T08:21:57.958Z,1001.13
2023-03-30T08:22:57.958Z,1001.11
2023-03-30T08:23:57.982Z,1001.07
2023-03-30T08:24:57.984Z,1001.05
2023-03-30T08:25:57.994Z,1001.02
2023-03-30T08:26:58.024Z,1000.99
2023-03-30T08:27:58.024Z,1000.96
2023-03-30T08:28:58.026Z,1000.85
2023-03-30T08:29:58.061Z,1000.82
2023-03-30T08:30:58.056Z,1000.83
2023-03-30T08:31:58.087Z,1000.80
2023-03-30T08:32:58.111Z,1000.81
2023-03-30T08:33:58.100Z,1000.79
2023-03-30T08:34:58.085Z,1000.80
2023-03-30T08:35:58.143Z,1000.77
2023-03-30T08:36:58.159Z,1000.78
2023-03-30T08:37:58.124Z,1000.80
2023-03-30T08:38:58.147Z,1000.81
2023-03-30T08:39:58.196Z,1000.76
2023-03-30T08:40:58.144Z,1000.76
2023-03-30T08:41:58.151Z,1000.72
2023-03-30T08:42:58.162Z,1000.75
2023-03-30T08:43:58.173Z,1000.73
2023-03-30T08:44:58.180Z,1000.73
2023-03-30T08:45:58.218Z,1000.77
2023-03-30T08:46:58.197Z,1000.82
2023-03-30T08:47:58.212Z,1000.78
2023-03-30T08:48:58.186Z,1000.82
2023-03-30T08:49:58.267Z,1000.81
2023-03-30T08:50:58.229Z,1000.74
2023-03-30T08:51:58.223Z,1000.76
2023-03-30T08:52:58.237Z,1000.74
2023-03-30T08:53:58.227Z,1000.68
2023-03-30T08:54:58.232Z,1000.65
2023-03-30T08:55:58.216Z,1000.61
2023-03-30T08:56:58.227Z,1000.60
2023-03-30T08:57:58.236Z,1000.62
2023-03-30T08:58:58.224Z,1000.69
2023-03-30T08:59:58.266Z,1000.69
2023-03-30T09:00:58.289Z,1000.58
2023-03-30T09:01:58.379Z,1000.57
2023-03-30T09:02:58.280Z,1000.57
2023-03-30T09:03:58.249Z,1000.56
2023-03-30T09:04:58.338Z,1000.57
2023-03-30T09:05:58.257Z,1000.57
2023-03-30T09:06:58.247Z,1000.63
2023-03-30T09:07:58.244Z,1000.57
2023-03-30T09:08:58.287Z,1000.65
2023-03-30T09:09:58.256Z,1000.65
2023-03-30T09:10:58.258Z,1000.63
2023-03-30T09:11:58.292Z,1000.57
2023-03-30T09:12:58.256Z,1000.55
2023-03-30T09:13:58.255Z,1000.58
2023-03-30T09:14:58.271Z,1000.56
2023-03-30T09:15:58.252Z,1000.58
2023-03-30T09:16:58.318Z,1000.56
2023-03-30T09:17:58.260Z,1000.57
2023-03-30T09:18:58.267Z,1000.55
2023-03-30T09:19:58.293Z,1000.56
2023-03-30T09:20:58.274Z,1000.54
2023-03-30T09:21:58.268Z,1000.54
2023-03-30T09:22:58.272Z,1000.46
2023-03-30T09:23:58.264Z,1000.56
2023-03-30T09:24:58.262Z,1000.55
2023-03-30T09:26:00.774Z,1000.51
2023-03-30T09:26:58.254Z,1000.44
2023-03-30T09:27:58.258Z,1000.47
2023-03-30T09:28:58.242Z,1000.47
2023-03-30T09:29:58.272Z,1000.44
2023-03-30T09:30:58.249Z,1000.49
2023-03-30T09:31:58.310Z,1000.49
2023-03-30T09:32:58.401Z,1000.50
2023-03-30T09:33:58.250Z,1000.51
2023-03-30T09:34:58.266Z,1000.44
2023-03-30T09:35:58.273Z,1000.52
2023-03-30T09:36:58.280Z,1000.52
2023-03-30T09:37:58.275Z,1000.52
2023-03-30T09:38:58.294Z,1000.53
2023-03-30T09:39:58.271Z,1000.56
2023-03-30T09:40:58.243Z,1000.54
2023-03-30T09:41:58.255Z,1000.59
2023-03-30T09:42:58.237Z,1000.60
2023-03-30T09:43:58.251Z,1000.58
2023-03-30T09:44:58.261Z,1000.61
2023-03-30T09:45:58.334Z,1000.62
2023-03-30T09:46:58.266Z,1000.54
2023-03-30T09:47:58.324Z,1000.60
2023-03-30T09:48:58.266Z,1000.60
2023-03-30T09:49:58.248Z,1000.64
2023-03-30T09:50:58.239Z,1000.61
2023-03-30T09:51:58.234Z,1000.58
2023-03-30T09:52:58.238Z,1000.60
2023-03-30T09:53:58.248Z,1000.60
2023-03-30T09:54:58.280Z,1000.58
2023-03-30T09:55:58.240Z,1000.57
2023-03-30T09:56:58.243Z,1000.60
2023-03-30T09:57:58.281Z,1000.63
2023-03-30T09:58:58.241Z,1000.61
2023-03-30T09:59:58.246Z,1000.59
2023-03-30T10:00:58.246Z,1000.57
2023-03-30T10:01:58.350Z,1000.58
2023-03-30T10:02:58.337Z,1000.60
2023-03-30T10:03:58.440Z,1000.53
2023-03-30T10:04:58.418Z,1000.55
2023-03-30T10:05:58.230Z,1000.62
2023-03-30T10:07:02.225Z,1000.54
2023-03-30T10:07:58.224Z,1000.55
2023-03-30T10:08:58.216Z,1000.58
2023-03-30T10:09:58.228Z,1000.59
2023-03-30T10:10:58.244Z,1000.63
2023-03-30T10:11:58.232Z,1000.67
2023-03-30T10:12:58.283Z,1000.69
2023-03-30T10:13:58.209Z,1000.68
2023-03-30T10:14:58.236Z,1000.72
2023-03-30T10:15:58.302Z,1000.69
2023-03-30T10:16:58.224Z,1000.65
2023-03-30T10:17:58.235Z,1000.66
2023-03-30T10:18:58.207Z,1000.64
2023-03-30T10:20:11.169Z,1000.70
2023-03-30T10:20:58.214Z,1000.66
2023-03-30T10:21:58.206Z,1000.70
2023-03-30T10:22:58.215Z,1000.70
2023-03-30T10:23:58.233Z,1000.70
2023-03-30T10:24:58.197Z,1000.68
2023-03-30T10:25:58.210Z,1000.71
2023-03-30T10:26:58.212Z,1000.69
2023-03-30T10:27:58.256Z,1000.70
2023-03-30T10:28:58.198Z,1000.69
2023-03-30T10:29:58.195Z,1000.74
2023-03-30T10:30:58.204Z,1000.73
2023-03-30T10:31:58.267Z,1000.72
2023-03-30T10:32:58.257Z,1000.71
2023-03-30T10:33:58.189Z,1000.73
2023-03-30T10:34:58.234Z,1000.73
2023-03-30T10:35:58.254Z,1000.71
2023-03-30T10:36:58.221Z,1000.65
2023-03-30T10:37:58.169Z,1000.65
2023-03-30T10:38:58.182Z,1000.62
2023-03-30T10:39:58.203Z,1000.61
2023-03-30T10:40:58.169Z,1000.61
2023-03-30T10:42:00.088Z,1000.68
2023-03-30T10:42:58.184Z,1000.58
2023-03-30T10:43:58.174Z,1000.59
2023-03-30T10:44:58.172Z,1000.54
2023-03-30T10:46:06.113Z,1000.55
2023-03-30T10:47:05.432Z,1000.51
2023-03-30T10:49:02.201Z,1000.47
2023-03-30T10:50:02.193Z,1000.45
2023-03-30T10:52:06.154Z,1000.44
2023-03-30T10:53:06.145Z,1000.49
2023-03-30T10:55:10.166Z,1000.50
2023-03-30T10:56:10.124Z,1000.40
2023-03-30T10:57:10.157Z,1000.42
2023-03-30T10:58:10.110Z,1000.42
2023-03-30T10:59:10.120Z,1000.43
2023-03-30T11:00:10.125Z,1000.42
2023-03-30T11:01:10.202Z,1000.48
2023-03-30T11:02:10.110Z,1000.45
2023-03-30T11:03:10.159Z,1000.42
2023-03-30T11:04:22.506Z,1000.45
2023-03-30T11:05:10.102Z,1000.44
2023-03-30T11:06:10.101Z,1000.43
2023-03-30T11:07:10.091Z,1000.43
2023-03-30T11:08:10.091Z,1000.43
2023-03-30T11:09:10.102Z,1000.43
2023-03-30T11:10:10.109Z,1000.43
2023-03-30T11:11:10.122Z,1000.43
2023-03-30T11:12:10.105Z,1000.39
2023-03-30T11:13:10.086Z,1000.35
2023-03-30T11:14:10.119Z,1000.31
2023-03-30T11:15:10.100Z,1000.34
2023-03-30T11:16:10.226Z,1000.39
2023-03-30T11:17:10.249Z,1000.33
2023-03-30T11:18:10.141Z,1000.35
2023-03-30T11:19:10.103Z,1000.28
2023-03-30T11:20:10.074Z,1000.31
2023-03-30T11:21:10.098Z,1000.30
2023-03-30T11:22:10.079Z,1000.35
2023-03-30T11:23:10.089Z,1000.34
2023-03-30T11:24:10.068Z,1000.32
2023-03-30T11:25:10.073Z,1000.34
2023-03-30T11:26:10.092Z,1000.31
2023-03-30T11:27:10.090Z,1000.38
2023-03-30T11:28:10.069Z,1000.30
2023-03-30T11:29:10.120Z,1000.27
2023-03-30T11:30:10.080Z,1000.31
2023-03-30T11:31:10.081Z,1000.26
2023-03-30T11:32:10.196Z,1000.36
2023-03-30T11:33:10.104Z,1000.37
2023-03-30T11:34:10.066Z,1000.40
2023-03-30T11:35:10.064Z,1000.37
2023-03-30T11:36:10.083Z,1000.28
2023-03-30T11:37:10.128Z,1000.33
2023-03-30T11:38:10.059Z,1000.37
2023-03-30T11:39:18.439Z,1000.31
2023-03-30T11:40:10.094Z,1000.26
2023-03-30T11:41:10.057Z,1000.23
2023-03-30T11:42:10.050Z,1000.20
2023-03-30T11:43:10.082Z,1000.19
2023-03-30T11:44:10.058Z,1000.12
2023-03-30T11:45:10.079Z,1000.05
2023-03-30T11:46:10.436Z,1000.07
2023-03-30T11:47:10.046Z,1000.07
2023-03-30T11:48:10.080Z,1000.08
2023-03-30T11:49:10.134Z,1000.03
2023-03-30T11:50:10.052Z,999.91
2023-03-30T11:51:10.066Z,999.94
2023-03-30T11:52:10.059Z,999.91
2023-03-30T11:53:10.048Z,999.94
2023-03-30T11:54:10.050Z,999.95
2023-03-30T11:55:10.091Z,999.91
2023-03-30T11:56:10.043Z,999.90
2023-03-30T11:57:10.080Z,999.93
2023-03-30T11:58:10.218Z,999.86
2023-03-30T11:59:10.073Z,999.85
2023-03-30T12:00:10.090Z,999.78
2023-03-30T12:01:10.039Z,999.80
2023-03-30T12:02:10.066Z,999.79
2023-03-30T12:03:10.132Z,999.76
2023-03-30T12:04:10.216Z,999.75
2023-03-30T12:05:10.122Z,999.69
2023-03-30T12:06:10.053Z,999.71
2023-03-30T12:07:10.031Z,999.67
2023-03-30T12:08:10.031Z,999.68
2023-03-30T12:09:10.052Z,999.66
2023-03-30T12:10:10.048Z,999.66
2023-03-30T12:11:10.029Z,999.56
2023-03-30T12:12:10.033Z,999.57